Time;durP1;ratioP1;P1;durP2;ratioP2;P2;SDS_P1;SDS_P2;PMS_P1;PMS_P2;Temp;Humidity;BMP_temperature;BMP_pressure;BME280_temperature;BME280_humidity;BME280_pressure;Samples;Min_cycle;Max_cycle;Signal;HPM_P1;HPM_P2
2022/01/16 00:00:23;;;;;;;30.30;16.10;;;3.80;99.90;;;;;;2612727;47;20386;-79
2022/01/16 00:05:26;;;;;;;34.90;20.27;;;3.60;99.90;;;;;;2611391;54;20438;-79
2022/01/16 00:07:53;;;;;;;19.97;11.47;;;3.50;99.90;;;;;;2609424;47;20415;-79
2022/01/16 00:10:21;;;;;;;34.37;17.33;;;3.50;99.90;;;;;;2610747;54;20503;-78
2022/01/16 00:12:48;;;;;;;32.70;19.13;;;3.60;99.90;;;;;;2612166;47;20446;-78
2022/01/16 00:15:20;;;;;;;31.37;18.17;;;3.60;99.90;;;;;;2611544;47;21023;-79
2022/01/16 00:18:07;;;;;;;37.23;20.17;;;3.60;99.90;;;;;;2611270;54;20407;-79
2022/01/16 00:20:33;;;;;;;41.43;19.30;;;3.40;99.90;;;;;;2610748;51;20411;-80
2022/01/16 00:22:59;;;;;;;35.30;18.83;;;3.30;99.90;;;;;;2611494;54;20488;-80
2022/01/16 00:25:25;;;;;;;31.67;16.67;;;3.40;99.90;;;;;;2609789;47;20444;-79
2022/01/16 00:27:52;;;;;;;22.43;13.27;;;3.40;99.90;;;;;;2610601;54;20159;-78
2022/01/16 00:30:18;;;;;;;30.70;18.37;;;3.20;99.90;;;;;;2610832;54;20470;-78
2022/01/16 00:32:47;;;;;;;30.53;16.93;;;3.20;99.90;;;;;;2610742;54;20426;-77
2022/01/16 00:35:14;;;;;;;38.33;19.27;;;3.30;99.90;;;;;;2612819;54;20939;-79
2022/01/16 00:37:41;;;;;;;30.90;16.80;;;3.40;99.90;;;;;;2613111;47;20446;-79
2022/01/16 00:40:09;;;;;;;24.67;13.77;;;3.40;99.90;;;;;;2612675;54;20390;-79
2022/01/16 00:42:35;;;;;;;25.53;14.50;;;3.30;99.90;;;;;;2613648;54;20407;-79
2022/01/16 00:45:02;;;;;;;23.13;14.17;;;3.30;99.90;;;;;;2613303;54;20446;-80
2022/01/16 00:47:28;;;;;;;31.83;18.57;;;3.40;99.90;;;;;;2610705;39;20800;-78
2022/01/16 00:49:54;;;;;;;23.37;13.20;;;3.40;99.90;;;;;;2611372;47;20419;-79
2022/01/16 00:52:20;;;;;;;16.30;12.13;;;3.50;99.90;;;;;;2612700;54;22151;-78
2022/01/16 00:54:46;;;;;;;30.57;16.77;;;3.30;99.90;;;;;;2613609;54;20390;-79
2022/01/16 00:57:12;;;;;;;31.33;16.73;;;3.20;99.90;;;;;;2612611;54;20396;-78
2022/01/16 00:59:38;;;;;;;21.20;13.40;;;3.30;99.90;;;;;;2611591;47;20595;-79
2022/01/16 01:02:04;;;;;;;25.43;14.90;;;3.30;99.90;;;;;;2610550;54;20157;-78
2022/01/16 01:04:30;;;;;;;15.00;8.93;;;3.30;99.90;;;;;;2613043;54;20482;-79
2022/01/16 01:06:55;;;;;;;23.73;16.00;;;3.20;99.90;;;;;;2610782;47;20466;-78
2022/01/16 01:09:21;;;;;;;14.10;10.40;;;3.20;99.90;;;;;;2611737;54;20248;-78
2022/01/16 01:11:49;;;;;;;10.13;7.10;;;3.00;99.90;;;;;;2611056;39;20602;-78
2022/01/16 01:16:54;;;;;;;20.73;11.67;;;2.90;99.90;;;;;;2614260;54;21035;-79
2022/01/16 01:19:29;;;;;;;15.00;11.17;;;2.90;99.90;;;;;;2612882;47;20964;-79
2022/01/16 01:21:56;;;;;;;18.80;11.87;;;3.00;99.90;;;;;;2613439;39;20773;-79
2022/01/16 01:24:25;;;;;;;13.50;11.60;;;3.00;99.90;;;;;;2613624;54;21043;-79
2022/01/16 01:27:06;;;;;;;23.70;14.10;;;2.90;99.90;;;;;;2611677;54;20417;-79
2022/01/16 01:29:32;;;;;;;12.40;8.17;;;2.90;99.90;;;;;;2612422;47;20483;-79
2022/01/16 01:31:58;;;;;;;21.33;13.90;;;2.80;99.90;;;;;;2611397;54;20403;-78
2022/01/16 01:34:24;;;;;;;20.30;11.67;;;2.80;99.90;;;;;;2614330;54;20983;-78
2022/01/16 01:36:51;;;;;;;17.53;12.97;;;2.90;99.90;;;;;;2612651;54;20423;-79
2022/01/16 01:39:21;;;;;;;22.80;15.53;;;2.80;99.90;;;;;;2614788;39;20927;-79
2022/01/16 01:41:50;;;;;;;15.90;10.57;;;2.80;99.90;;;;;;2612661;54;20963;-79
2022/01/16 01:52:31;;;;;;;24.83;14.80;;;2.70;99.90;;;;;;2613163;54;20416;-79
2022/01/16 01:54:57;;;;;;;17.53;11.20;;;2.70;99.90;;;;;;2613751;54;20408;-79
2022/01/16 01:57:23;;;;;;;15.90;10.93;;;2.70;99.90;;;;;;2610534;54;20565;-78
2022/01/16 01:59:48;;;;;;;22.63;14.00;;;2.70;99.90;;;;;;2613315;46;20344;-77
2022/01/16 02:02:14;;;;;;;22.83;15.30;;;2.80;99.90;;;;;;2611653;54;20403;-77
2022/01/16 02:04:40;;;;;;;24.53;16.10;;;2.70;99.90;;;;;;2613455;39;20578;-78
2022/01/16 02:07:06;;;;;;;25.60;16.60;;;2.70;99.90;;;;;;2613899;54;20419;-78
2022/01/16 02:09:33;;;;;;;15.07;11.40;;;2.80;99.90;;;;;;2613782;47;20174;-79
2022/01/16 02:11:58;;;;;;;26.27;16.40;;;2.80;99.90;;;;;;2611346;47;20181;-78
2022/01/16 02:28:11;;;;;;;25.73;17.50;;;2.80;99.90;;;;;;2612398;51;20430;-78
2022/01/16 02:35:44;;;;;;;27.10;15.50;;;2.90;99.90;;;;;;2611910;54;20446;-77
2022/01/16 02:38:10;;;;;;;23.90;15.50;;;2.90;99.90;;;;;;2611380;54;20390;-78
2022/01/16 02:40:40;;;;;;;29.07;15.97;;;3.00;99.90;;;;;;2611013;54;20438;-78
2022/01/16 02:43:06;;;;;;;26.20;18.63;;;3.00;99.90;;;;;;2612543;54;20431;-78
2022/01/16 02:45:36;;;;;;;27.43;17.63;;;3.00;99.90;;;;;;2613130;51;20407;-78
2022/01/16 02:48:07;;;;;;;30.83;18.83;;;3.10;99.90;;;;;;2613338;39;20503;-77
2022/01/16 02:50:37;;;;;;;31.53;20.23;;;3.10;99.90;;;;;;2613795;54;20363;-78
2022/01/16 02:53:10;;;;;;;29.13;16.90;;;3.10;99.90;;;;;;2611270;54;21225;-78
2022/01/16 02:55:43;;;;;;;30.20;18.03;;;3.10;99.90;;;;;;2612478;54;20476;-78
2022/01/16 02:58:09;;;;;;;28.20;18.30;;;3.30;99.90;;;;;;2612560;47;20420;-78
2022/01/16 03:00:36;;;;;;;23.13;14.40;;;3.10;99.90;;;;;;2612456;54;20452;-78
2022/01/16 03:03:02;;;;;;;28.17;18.43;;;3.10;99.90;;;;;;2613613;54;20419;-79
2022/01/16 03:05:29;;;;;;;38.20;20.33;;;3.10;99.90;;;;;;2614990;54;20419;-81
2022/01/16 03:07:54;;;;;;;33.77;21.60;;;3.10;99.90;;;;;;2612808;39;21166;-81
2022/01/16 03:12:51;;;;;;;39.40;24.10;;;3.30;99.90;;;;;;2613925;54;20415;-83
2022/01/16 03:15:19;;;;;;;36.70;20.93;;;3.20;99.90;;;;;;2613988;51;20445;-81
2022/01/16 03:23:18;;;;;;;32.03;19.80;;;3.30;99.90;;;;;;2613617;54;20426;-80
2022/01/16 03:25:45;;;;;;;36.80;24.20;;;3.40;99.90;;;;;;2613320;47;20426;-80
2022/01/16 03:28:11;;;;;;;39.27;24.87;;;3.20;99.90;;;;;;2611941;54;22213;-76
2022/01/16 03:30:37;;;;;;;31.27;19.90;;;3.30;99.90;;;;;;2609995;54;20924;-78
2022/01/16 03:33:04;;;;;;;35.43;21.10;;;3.20;99.90;;;;;;2610827;54;21181;-79
2022/01/16 03:35:31;;;;;;;41.93;23.80;;;3.20;99.90;;;;;;2612600;47;20979;-78
2022/01/16 03:37:58;;;;;;;48.33;25.13;;;3.30;99.90;;;;;;2614552;54;20988;-78
2022/01/16 03:40:24;;;;;;;42.37;27.33;;;3.40;99.90;;;;;;2614225;52;20578;-78
2022/01/16 03:42:51;;;;;;;27.83;17.37;;;3.30;99.90;;;;;;2613760;54;20407;-78
2022/01/16 03:45:18;;;;;;;38.10;22.43;;;3.20;99.90;;;;;;2612463;54;20443;-77
2022/01/16 03:47:43;;;;;;;36.43;24.00;;;3.20;99.90;;;;;;2610506;54;20410;-77
2022/01/16 03:50:10;;;;;;;35.13;22.23;;;3.20;99.90;;;;;;2614000;54;20406;-77
2022/01/16 03:52:36;;;;;;;41.13;24.70;;;3.10;99.90;;;;;;2612304;54;20143;-77
2022/01/16 03:55:03;;;;;;;41.90;25.60;;;3.20;99.90;;;;;;2613979;47;22359;-78
2022/01/16 03:57:30;;;;;;;43.83;27.00;;;3.20;99.90;;;;;;2614271;47;20453;-77
2022/01/16 03:59:56;;;;;;;53.23;26.20;;;3.10;99.90;;;;;;2614129;46;20477;-77
2022/01/16 04:02:22;;;;;;;20.53;15.80;;;3.10;99.90;;;;;;2615196;54;20403;-77
2022/01/16 04:04:48;;;;;;;34.27;21.53;;;3.10;99.90;;;;;;2615082;54;20510;-77
2022/01/16 04:07:21;;;;;;;27.37;17.93;;;3.10;99.90;;;;;;2614087;47;20450;-77
2022/01/16 04:09:46;;;;;;;34.27;19.70;;;3.10;99.90;;;;;;2612246;54;20186;-77
2022/01/16 04:12:12;;;;;;;26.13;17.73;;;3.10;99.90;;;;;;2612748;47;20440;-78
2022/01/16 04:17:18;;;;;;;28.23;16.63;;;3.20;99.90;;;;;;2612872;54;20157;-77
2022/01/16 04:19:45;;;;;;;37.13;22.17;;;3.10;99.90;;;;;;2615509;54;20422;-78
2022/01/16 04:22:12;;;;;;;50.67;30.07;;;3.20;99.90;;;;;;2614701;54;20408;-78
2022/01/16 04:24:39;;;;;;;30.33;20.90;;;3.10;99.90;;;;;;2614232;54;20459;-78
2022/01/16 04:27:05;;;;;;;40.80;22.63;;;3.10;99.90;;;;;;2614684;54;20394;-78
2022/01/16 04:29:31;;;;;;;41.10;26.00;;;3.10;99.90;;;;;;2613792;47;20422;-77
2022/01/16 04:31:58;;;;;;;21.60;12.87;;;3.20;99.90;;;;;;2613111;54;20994;-77
2022/01/16 04:34:24;;;;;;;49.07;25.03;;;3.10;99.90;;;;;;2615348;54;20519;-78
2022/01/16 04:36:50;;;;;;;48.00;27.37;;;3.20;99.90;;;;;;2615297;54;20984;-78
2022/01/16 04:39:19;;;;;;;34.83;21.73;;;3.10;99.90;;;;;;2614677;54;20215;-78
2022/01/16 04:44:29;;;;;;;40.60;25.43;;;3.10;99.90;;;;;;2613081;54;20422;-78
2022/01/16 04:46:56;;;;;;;58.70;28.83;;;3.10;99.90;;;;;;2614895;54;20479;-78
2022/01/16 04:49:22;;;;;;;48.20;29.17;;;3.10;99.90;;;;;;2615342;54;20258;-78
2022/01/16 04:51:48;;;;;;;46.87;26.77;;;3.10;99.90;;;;;;2615869;39;20835;-78
2022/01/16 04:54:14;;;;;;;45.00;30.33;;;3.10;99.90;;;;;;2615133;54;20408;-77
2022/01/16 04:56:40;;;;;;;45.40;18.87;;;3.10;99.90;;;;;;2612939;47;20487;-77
2022/01/16 04:59:06;;;;;;;27.57;19.33;;;3.10;99.90;;;;;;2614711;39;20811;-78
2022/01/16 05:01:33;;;;;;;36.23;22.03;;;3.00;99.90;;;;;;2613831;54;20498;-78
2022/01/16 05:03:59;;;;;;;32.83;19.63;;;3.00;99.90;;;;;;2614160;54;20379;-77
2022/01/16 05:06:26;;;;;;;33.30;20.90;;;3.00;99.90;;;;;;2615093;54;20947;-78
2022/01/16 05:08:51;;;;;;;41.00;24.10;;;2.90;99.90;;;;;;2614165;54;20412;-78
2022/01/16 05:11:24;;;;;;;28.87;19.23;;;3.00;99.90;;;;;;2614431;54;20479;-78
2022/01/16 05:19:08;;;;;;;53.87;28.97;;;3.00;99.90;;;;;;2613387;48;20163;-79
2022/01/16 05:21:34;;;;;;;51.27;28.73;;;3.10;99.90;;;;;;2614804;47;20504;-78
2022/01/16 05:24:02;;;;;;;52.53;26.07;;;3.30;99.90;;;;;;2613849;54;20424;-78
2022/01/16 05:26:29;;;;;;;53.80;28.27;;;3.20;99.90;;;;;;2613714;47;20431;-78
2022/01/16 05:28:56;;;;;;;48.50;29.20;;;3.10;99.90;;;;;;2615774;54;20407;-78
2022/01/16 05:31:23;;;;;;;52.27;31.27;;;3.10;99.90;;;;;;2613545;54;20396;-78
2022/01/16 05:33:50;;;;;;;38.57;24.97;;;3.10;99.90;;;;;;2612621;39;20833;-77
2022/01/16 05:36:15;;;;;;;52.57;25.80;;;3.00;99.90;;;;;;2613797;54;20435;-77
2022/01/16 05:38:41;;;;;;;61.60;35.53;;;3.00;99.90;;;;;;2613894;54;21003;-78
2022/01/16 05:41:08;;;;;;;39.80;22.50;;;3.20;99.90;;;;;;2614229;47;20424;-78
2022/01/16 05:43:34;;;;;;;64.97;35.50;;;3.10;99.90;;;;;;2614680;54;20543;-77
2022/01/16 05:46:00;;;;;;;39.10;21.07;;;3.20;99.90;;;;;;2612902;39;20789;-77
2022/01/16 05:48:26;;;;;;;40.20;21.73;;;3.20;99.90;;;;;;2614460;54;20499;-77
2022/01/16 05:50:52;;;;;;;53.73;30.70;;;3.20;99.90;;;;;;2612868;54;20187;-78
2022/01/16 05:53:18;;;;;;;50.73;30.70;;;3.20;99.90;;;;;;2613165;39;20470;-77
2022/01/16 05:56:07;;;;;;;55.13;29.67;;;3.20;99.90;;;;;;2614184;54;20495;-78
2022/01/16 05:58:33;;;;;;;56.10;30.40;;;3.20;99.90;;;;;;2613896;39;20787;-78
2022/01/16 06:00:59;;;;;;;58.97;32.53;;;3.10;99.90;;;;;;2611925;54;20495;-78
2022/01/16 06:03:25;;;;;;;60.17;31.33;;;3.10;99.90;;;;;;2612719;39;20747;-78
2022/01/16 06:05:50;;;;;;;61.43;33.90;;;3.10;99.90;;;;;;2612036;54;20999;-78
2022/01/16 06:08:16;;;;;;;63.27;33.70;;;3.20;99.90;;;;;;2612659;47;20456;-78
2022/01/16 06:10:42;;;;;;;47.57;25.57;;;3.30;99.90;;;;;;2613170;54;20456;-77
2022/01/16 06:13:08;;;;;;;45.07;28.07;;;3.10;99.90;;;;;;2610130;54;20167;-78
2022/01/16 06:15:35;;;;;;;45.60;26.07;;;3.20;99.90;;;;;;2611821;54;20225;-78
2022/01/16 06:18:01;;;;;;;69.77;39.87;;;3.30;99.90;;;;;;2612204;54;20500;-77
2022/01/16 06:20:27;;;;;;;32.13;14.83;;;3.30;99.90;;;;;;2612735;54;21083;-77
2022/01/16 06:22:53;;;;;;;60.93;32.27;;;3.30;99.90;;;;;;2613330;54;20379;-77
2022/01/16 06:25:21;;;;;;;45.27;27.90;;;3.40;99.90;;;;;;2613389;54;20381;-77
2022/01/16 06:27:47;;;;;;;58.83;35.93;;;3.30;99.90;;;;;;2613827;47;20162;-77
2022/01/16 06:30:13;;;;;;;33.97;19.20;;;3.30;99.90;;;;;;2610928;54;20427;-79
2022/01/16 06:32:39;;;;;;;54.83;33.30;;;3.30;99.90;;;;;;2609441;39;20609;-78
2022/01/16 06:35:07;;;;;;;53.70;28.70;;;3.30;99.90;;;;;;2612317;54;20411;-78
2022/01/16 06:37:33;;;;;;;72.03;38.73;;;3.30;99.90;;;;;;2614229;39;20828;-78
2022/01/16 06:39:59;;;;;;;36.17;19.20;;;3.40;99.90;;;;;;2613709;54;20388;-78
2022/01/16 06:42:24;;;;;;;60.30;38.10;;;3.40;99.90;;;;;;2613892;54;20155;-78
2022/01/16 06:44:50;;;;;;;47.30;28.57;;;3.40;99.90;;;;;;2614200;54;20407;-78
2022/01/16 06:47:17;;;;;;;51.53;31.03;;;3.50;99.90;;;;;;2613193;54;20941;-78
2022/01/16 06:49:43;;;;;;;57.10;32.87;;;3.50;99.90;;;;;;2611846;54;20399;-78
2022/01/16 06:52:09;;;;;;;66.67;37.37;;;3.50;99.90;;;;;;2613488;47;20539;-78
2022/01/16 06:54:35;;;;;;;69.73;31.27;;;3.70;99.90;;;;;;2613219;39;20843;-77
2022/01/16 06:57:01;;;;;;;62.27;37.30;;;3.60;99.90;;;;;;2614961;54;20487;-78
2022/01/16 06:59:27;;;;;;;48.67;26.80;;;3.70;99.90;;;;;;2612378;47;20177;-77
2022/01/16 07:01:53;;;;;;;48.43;29.97;;;3.60;99.90;;;;;;2611816;54;20387;-81
2022/01/16 07:04:20;;;;;;;55.17;33.70;;;3.60;99.90;;;;;;2612735;54;20404;-80
2022/01/16 07:06:46;;;;;;;26.27;16.73;;;3.60;99.90;;;;;;2614208;54;20383;-79
2022/01/16 07:09:11;;;;;;;53.67;32.73;;;3.60;99.90;;;;;;2613397;54;20423;-79
2022/01/16 07:11:37;;;;;;;47.47;27.60;;;3.60;99.90;;;;;;2609319;47;20399;-78
2022/01/16 07:14:03;;;;;;;41.83;28.20;;;3.60;99.90;;;;;;2610957;54;20833;-78
2022/01/16 07:16:29;;;;;;;56.33;34.23;;;3.60;99.90;;;;;;2611966;54;20702;-78
2022/01/16 07:18:54;;;;;;;75.70;37.37;;;3.70;99.90;;;;;;2611464;47;20254;-77
2022/01/16 07:21:20;;;;;;;52.10;33.27;;;3.80;99.90;;;;;;2612815;39;20579;-78
2022/01/16 07:23:48;;;;;;;61.30;37.47;;;3.70;99.90;;;;;;2611868;54;20155;-78
2022/01/16 07:26:18;;;;;;;59.03;34.40;;;3.80;99.90;;;;;;2610688;47;20166;-78
2022/01/16 07:28:45;;;;;;;33.20;20.80;;;3.80;99.90;;;;;;2610482;54;20471;-78
2022/01/16 07:31:11;;;;;;;58.47;35.67;;;3.80;99.90;;;;;;2610295;47;20439;-79
2022/01/16 07:33:37;;;;;;;57.57;34.10;;;3.70;99.90;;;;;;2610747;54;20443;-78
2022/01/16 07:36:05;;;;;;;48.70;31.60;;;3.80;99.90;;;;;;2610980;54;20431;-79
2022/01/16 07:38:32;;;;;;;49.03;25.83;;;3.80;99.90;;;;;;2611226;47;20427;-78
2022/01/16 07:40:59;;;;;;;58.03;32.37;;;3.70;99.90;;;;;;2611188;47;20451;-80
2022/01/16 07:43:25;;;;;;;64.13;37.50;;;3.80;99.90;;;;;;2611124;39;20895;-80
2022/01/16 07:45:51;;;;;;;42.33;25.97;;;3.80;99.90;;;;;;2610702;47;20420;-79
2022/01/16 07:48:18;;;;;;;42.90;27.33;;;3.80;99.90;;;;;;2611506;54;20426;-79
2022/01/16 07:50:44;;;;;;;48.03;27.67;;;3.70;99.90;;;;;;2610609;54;20171;-80
2022/01/16 07:53:10;;;;;;;56.43;32.90;;;3.80;99.90;;;;;;2611081;39;20841;-77
2022/01/16 07:55:36;;;;;;;55.03;32.13;;;3.90;99.90;;;;;;2610999;54;20390;-82
2022/01/16 07:58:02;;;;;;;59.43;32.80;;;3.90;99.90;;;;;;2611241;54;20475;-78
2022/01/16 08:00:30;;;;;;;52.10;33.17;;;4.00;99.90;;;;;;2612052;47;20483;-78
2022/01/16 08:02:57;;;;;;;69.00;35.90;;;3.90;99.90;;;;;;2611327;54;20534;-79
2022/01/16 08:05:25;;;;;;;63.87;35.93;;;3.90;99.90;;;;;;2614534;54;20435;-79
2022/01/16 08:07:51;;;;;;;43.83;28.20;;;4.00;99.90;;;;;;2609669;54;20407;-80
2022/01/16 08:10:17;;;;;;;50.53;28.27;;;3.90;99.90;;;;;;2611624;54;20407;-79
2022/01/16 08:12:42;;;;;;;56.17;29.30;;;3.90;99.90;;;;;;2611137;54;20404;-76
2022/01/16 08:15:09;;;;;;;51.03;29.77;;;4.00;99.90;;;;;;2612834;46;20523;-78
2022/01/16 08:17:36;;;;;;;55.07;27.90;;;4.00;99.90;;;;;;2610545;47;20167;-78
2022/01/16 08:20:04;;;;;;;62.27;37.27;;;3.90;99.90;;;;;;2614445;39;20779;-78
2022/01/16 08:22:29;;;;;;;64.60;38.43;;;4.00;99.90;;;;;;2613782;47;20723;-78
2022/01/16 08:24:55;;;;;;;58.03;30.87;;;4.00;99.90;;;;;;2613967;54;20407;-77
2022/01/16 08:27:21;;;;;;;39.17;26.60;;;4.10;99.90;;;;;;2610958;47;20197;-78
2022/01/16 08:29:48;;;;;;;39.77;27.07;;;4.00;99.90;;;;;;2611513;39;21061;-77
2022/01/16 08:32:16;;;;;;;51.47;31.67;;;4.10;99.90;;;;;;2611602;47;20170;-78
2022/01/16 08:34:42;;;;;;;54.30;28.50;;;4.10;99.90;;;;;;2614320;31;20923;-79
2022/01/16 08:37:08;;;;;;;58.73;34.10;;;4.00;99.90;;;;;;2614711;47;21326;-79
2022/01/16 08:39:34;;;;;;;58.93;34.27;;;4.10;99.90;;;;;;2614694;54;20428;-79
2022/01/16 08:42:00;;;;;;;37.80;22.97;;;4.10;99.90;;;;;;2613103;54;20416;-77
2022/01/16 08:44:26;;;;;;;54.33;33.70;;;4.10;99.90;;;;;;2612153;54;20444;-80
2022/01/16 08:46:52;;;;;;;65.13;39.13;;;4.10;99.90;;;;;;2611670;54;20692;-78
2022/01/16 08:49:17;;;;;;;39.17;23.53;;;4.40;99.90;;;;;;2612374;54;20407;-78
2022/01/16 08:51:43;;;;;;;47.23;30.47;;;4.30;99.90;;;;;;2612340;39;20774;-79
2022/01/16 08:54:09;;;;;;;67.57;39.67;;;4.20;99.90;;;;;;2611871;47;20155;-78
2022/01/16 08:56:35;;;;;;;45.83;25.87;;;4.30;99.90;;;;;;2615475;54;20415;-79
2022/01/16 08:59:01;;;;;;;56.87;35.77;;;4.30;99.90;;;;;;2613347;54;20154;-79
2022/01/16 09:01:27;;;;;;;57.27;36.27;;;4.40;99.90;;;;;;2612181;54;20390;-79
2022/01/16 09:03:53;;;;;;;57.43;36.00;;;4.40;99.90;;;;;;2611914;47;20419;-78
2022/01/16 09:06:19;;;;;;;56.67;33.20;;;4.50;99.90;;;;;;2615850;54;20177;-78
2022/01/16 09:08:45;;;;;;;44.93;26.00;;;4.40;99.90;;;;;;2614946;47;20952;-80
2022/01/16 09:11:11;;;;;;;52.50;28.70;;;4.40;99.90;;;;;;2614290;47;20454;-78
2022/01/16 09:13:40;;;;;;;40.00;26.13;;;4.40;99.90;;;;;;2612653;47;20415;-78
2022/01/16 09:16:07;;;;;;;46.03;30.10;;;4.50;99.90;;;;;;2614766;54;21039;-79
2022/01/16 09:18:34;;;;;;;43.20;29.23;;;4.50;99.90;;;;;;2615092;47;20418;-78
2022/01/16 09:21:01;;;;;;;51.70;35.53;;;4.50;99.90;;;;;;2614492;39;21010;-78
2022/01/16 09:23:28;;;;;;;59.07;35.77;;;4.60;99.90;;;;;;2613184;39;20817;-78
2022/01/16 09:25:54;;;;;;;40.17;25.27;;;4.60;99.90;;;;;;2611513;54;21077;-79
2022/01/16 09:28:19;;;;;;;55.57;33.43;;;4.60;99.90;;;;;;2612926;54;20420;-79
2022/01/16 09:30:46;;;;;;;54.00;33.13;;;4.60;99.90;;;;;;2613707;54;21003;-79
2022/01/16 09:33:12;;;;;;;70.40;33.63;;;4.80;99.90;;;;;;2612077;46;20511;-78
2022/01/16 09:35:38;;;;;;;55.60;30.27;;;4.70;99.90;;;;;;2613730;54;20407;-79
2022/01/16 09:38:05;;;;;;;39.30;26.50;;;4.70;99.90;;;;;;2615223;54;20414;-78
2022/01/16 09:40:33;;;;;;;47.53;31.73;;;4.70;99.90;;;;;;2614999;54;20408;-78
2022/01/16 09:43:01;;;;;;;35.57;23.43;;;4.70;99.90;;;;;;2614506;54;20400;-79
2022/01/16 09:45:27;;;;;;;36.47;22.23;;;4.60;99.90;;;;;;2615408;47;20564;-78
2022/01/16 09:47:52;;;;;;;51.00;27.67;;;4.70;99.90;;;;;;2610678;54;20495;-78
2022/01/16 09:50:25;;;;;;;41.20;24.23;;;4.80;99.90;;;;;;2612128;39;20593;-79
2022/01/16 09:52:52;;;;;;;45.20;27.20;;;4.70;99.90;;;;;;2612828;54;20169;-79
2022/01/16 09:55:20;;;;;;;52.63;30.97;;;4.80;99.90;;;;;;2614477;54;20407;-81
2022/01/16 09:57:49;;;;;;;30.97;21.30;;;4.80;99.90;;;;;;2615165;54;20419;-78
2022/01/16 10:00:17;;;;;;;56.50;27.43;;;4.80;99.90;;;;;;2615048;54;20407;-78
2022/01/16 10:02:46;;;;;;;47.43;30.77;;;4.80;99.90;;;;;;2614522;54;20399;-79
2022/01/16 10:05:22;;;;;;;50.00;31.83;;;4.90;99.90;;;;;;2612319;54;20452;-79
2022/01/16 10:07:48;;;;;;;36.80;23.80;;;4.90;99.90;;;;;;2613338;47;20978;-79
2022/01/16 10:10:14;;;;;;;49.00;31.43;;;4.90;99.90;;;;;;2612074;47;20463;-78
2022/01/16 10:12:47;;;;;;;49.93;32.43;;;5.00;99.90;;;;;;2613816;54;20151;-79
2022/01/16 10:15:20;;;;;;;50.80;34.30;;;5.10;99.90;;;;;;2614704;54;20427;-79
2022/01/16 10:17:49;;;;;;;50.40;29.00;;;5.20;99.90;;;;;;2612900;47;20591;-78
2022/01/16 10:20:19;;;;;;;35.27;22.13;;;5.10;99.90;;;;;;2612616;54;21221;-78
2022/01/16 10:22:49;;;;;;;40.07;23.03;;;5.10;99.90;;;;;;2612393;39;20795;-79
2022/01/16 10:25:17;;;;;;;49.53;29.60;;;5.20;99.90;;;;;;2612028;39;20792;-80
2022/01/16 10:27:46;;;;;;;58.20;30.33;;;5.20;99.90;;;;;;2610972;54;20555;-79
2022/01/16 10:30:15;;;;;;;39.53;26.30;;;5.30;99.90;;;;;;2613094;54;20415;-80
2022/01/16 10:32:46;;;;;;;50.60;30.20;;;5.30;99.90;;;;;;2611954;54;20398;-79
2022/01/16 10:35:22;;;;;;;39.47;21.67;;;5.30;99.90;;;;;;2613088;39;20517;-78
2022/01/16 10:37:56;;;;;;;42.93;25.60;;;5.20;99.90;;;;;;2611193;39;20806;-77
2022/01/16 10:40:37;;;;;;;48.80;28.80;;;5.20;99.90;;;;;;2612645;47;20424;-79
2022/01/16 10:43:13;;;;;;;39.13;21.33;;;5.20;99.90;;;;;;2611393;54;20878;-78
2022/01/16 10:45:41;;;;;;;44.63;27.63;;;5.10;99.90;;;;;;2610506;54;20431;-78
2022/01/16 10:48:07;;;;;;;49.20;30.60;;;5.10;99.90;;;;;;2609326;54;20487;-78
2022/01/16 10:50:42;;;;;;;33.50;20.10;;;5.30;99.90;;;;;;2611787;54;20395;-78
2022/01/16 10:53:15;;;;;;;39.53;24.17;;;5.20;99.90;;;;;;2613440;54;20386;-78
2022/01/16 10:55:47;;;;;;;32.80;23.53;;;5.40;99.90;;;;;;2612875;54;20427;-77
2022/01/16 10:58:46;;;;;;;42.63;28.70;;;5.40;99.90;;;;;;2613385;39;20936;-81
2022/01/16 11:01:14;;;;;;;40.57;25.17;;;5.40;99.90;;;;;;2611334;54;20435;-79
2022/01/16 11:03:44;;;;;;;36.80;24.90;;;5.50;99.90;;;;;;2612032;54;20410;-80
2022/01/16 11:06:10;;;;;;;30.77;22.13;;;5.50;99.90;;;;;;2611270;54;20430;-79
2022/01/16 11:08:36;;;;;;;45.77;28.87;;;5.50;99.90;;;;;;2610821;54;20411;-82
2022/01/16 11:11:02;;;;;;;51.03;28.00;;;5.50;99.90;;;;;;2611630;54;20427;-79
2022/01/16 11:13:33;;;;;;;48.90;25.30;;;5.70;99.90;;;;;;2611777;54;20460;-79
2022/01/16 11:16:05;;;;;;;43.73;25.90;;;5.60;99.90;;;;;;2611924;47;20539;-80
2022/01/16 11:18:35;;;;;;;39.43;26.13;;;5.60;99.90;;;;;;2611091;47;20420;-79
2022/01/16 11:23:48;;;;;;;41.63;28.17;;;5.60;99.90;;;;;;2609664;39;20938;-79
2022/01/16 11:26:19;;;;;;;49.50;29.70;;;5.50;99.90;;;;;;2610773;54;21046;-80
2022/01/16 11:28:46;;;;;;;42.77;23.17;;;5.50;99.90;;;;;;2610230;54;20452;-79
2022/01/16 11:31:14;;;;;;;48.00;28.90;;;5.50;99.90;;;;;;2611369;47;20525;-79
2022/01/16 11:33:41;;;;;;;39.60;22.63;;;5.50;99.90;;;;;;2612547;54;20420;-79
2022/01/16 11:36:18;;;;;;;51.57;27.57;;;5.60;99.90;;;;;;2611747;54;20414;-78
2022/01/16 11:38:51;;;;;;;50.20;28.30;;;5.60;99.90;;;;;;2612362;47;20434;-79
2022/01/16 11:41:26;;;;;;;47.30;28.23;;;5.70;99.90;;;;;;2611568;39;21374;-80
2022/01/16 11:43:55;;;;;;;46.07;25.43;;;5.80;99.90;;;;;;2611522;39;21384;-79
2022/01/16 11:46:23;;;;;;;46.43;24.60;;;5.70;99.90;;;;;;2610515;39;20970;-78
2022/01/16 11:48:58;;;;;;;48.20;28.87;;;5.70;99.90;;;;;;2611717;54;20427;-81
2022/01/16 11:51:35;;;;;;;53.00;29.90;;;5.80;99.90;;;;;;2611425;47;20922;-77
2022/01/16 11:54:01;;;;;;;57.63;33.30;;;5.90;99.90;;;;;;2614483;47;20410;-79
2022/01/16 11:56:43;;;;;;;43.23;23.83;;;6.10;99.90;;;;;;2614477;47;20439;-79
2022/01/16 11:59:28;;;;;;;28.90;17.97;;;5.90;99.90;;;;;;2614436;47;20442;-80
2022/01/16 12:02:00;;;;;;;52.87;27.10;;;5.90;99.90;;;;;;2616314;39;20946;-79
2022/01/16 12:04:29;;;;;;;40.73;25.37;;;5.90;99.90;;;;;;2614119;54;20430;-79
2022/01/16 12:06:58;;;;;;;55.03;31.57;;;6.10;99.90;;;;;;2612386;47;20489;-79
2022/01/16 12:09:57;;;;;;;44.27;24.50;;;6.20;99.90;;;;;;2612883;54;20395;-79
2022/01/16 12:12:23;;;;;;;54.00;30.37;;;6.10;99.90;;;;;;2612675;54;20424;-80
2022/01/16 12:14:56;;;;;;;52.90;33.87;;;6.10;99.90;;;;;;2613278;54;20590;-80
2022/01/16 12:17:42;;;;;;;47.43;28.43;;;6.10;99.90;;;;;;2613921;47;20435;-81
2022/01/16 12:22:42;;;;;;;51.87;30.97;;;6.10;99.90;;;;;;2616852;39;20786;-79
2022/01/16 12:25:15;;;;;;;49.33;26.97;;;6.20;99.90;;;;;;2614590;54;20504;-79
2022/01/16 12:27:51;;;;;;;58.23;31.07;;;6.00;99.90;;;;;;2615747;47;20513;-79
2022/01/16 12:30:38;;;;;;;39.17;24.23;;;6.00;99.90;;;;;;2615247;54;20441;-79
2022/01/16 12:33:16;;;;;;;58.30;32.80;;;5.90;99.90;;;;;;2615376;54;20507;-79
2022/01/16 12:35:48;;;;;;;44.47;25.37;;;6.00;99.90;;;;;;2612067;54;20435;-79
2022/01/16 12:38:19;;;;;;;58.47;32.90;;;6.00;99.90;;;;;;2613138;47;20427;-80
2022/01/16 12:40:47;;;;;;;53.33;30.00;;;5.90;99.90;;;;;;2613713;54;20431;-78
2022/01/16 12:43:30;;;;;;;52.27;29.30;;;5.90;99.90;;;;;;2611459;54;20431;-79
2022/01/16 12:45:57;;;;;;;38.00;22.50;;;6.00;99.90;;;;;;2611673;54;20415;-79
2022/01/16 12:48:23;;;;;;;56.57;32.37;;;5.90;99.90;;;;;;2613046;47;20410;-79
2022/01/16 12:50:49;;;;;;;55.70;33.53;;;5.90;99.90;;;;;;2615700;39;20802;-78
2022/01/16 12:53:41;;;;;;;39.03;20.60;;;5.90;99.90;;;;;;2614536;47;20424;-77
2022/01/16 12:56:30;;;;;;;41.37;25.17;;;5.80;99.90;;;;;;2615067;54;20395;-78
2022/01/16 12:59:09;;;;;;;64.13;34.30;;;5.90;99.90;;;;;;2615336;54;20407;-78
2022/01/16 13:01:36;;;;;;;55.33;31.40;;;5.80;99.90;;;;;;2615104;47;20535;-79
2022/01/16 13:04:03;;;;;;;56.90;29.63;;;5.90;99.90;;;;;;2612293;54;20427;-78
2022/01/16 13:06:32;;;;;;;49.77;28.87;;;5.90;99.90;;;;;;2611777;54;20407;-78
2022/01/16 13:09:07;;;;;;;61.97;33.07;;;5.80;99.90;;;;;;2611851;51;20431;-78
2022/01/16 13:11:45;;;;;;;57.73;32.93;;;5.80;99.90;;;;;;2611773;47;20438;-79
2022/01/16 13:14:25;;;;;;;46.20;25.83;;;5.90;99.90;;;;;;2612023;39;21729;-78
2022/01/16 13:16:53;;;;;;;35.97;20.47;;;5.70;99.90;;;;;;2611713;54;20533;-78
2022/01/16 13:19:22;;;;;;;45.90;27.10;;;5.80;99.90;;;;;;2612045;54;20442;-81
2022/01/16 13:24:30;;;;;;;51.80;29.07;;;5.80;99.90;;;;;;2612470;46;20454;-78
2022/01/16 13:26:58;;;;;;;56.57;31.17;;;5.70;99.90;;;;;;2614720;47;20510;-78
2022/01/16 13:29:24;;;;;;;29.50;15.70;;;5.60;99.90;;;;;;2614967;39;20750;-79
2022/01/16 13:31:51;;;;;;;48.20;24.63;;;5.60;99.90;;;;;;2615023;54;20996;-81
2022/01/16 13:34:30;;;;;;;51.53;24.70;;;5.60;99.90;;;;;;2613180;39;21117;-80
2022/01/16 13:36:56;;;;;;;62.17;31.03;;;5.60;99.90;;;;;;2612486;31;21286;-79
2022/01/16 13:39:43;;;;;;;51.17;26.53;;;5.70;99.90;;;;;;2612474;47;20423;-79
2022/01/16 13:42:25;;;;;;;52.73;29.30;;;5.80;99.90;;;;;;2612513;54;20404;-79